Dame De Poisson — FGG2707 — position and weather

sailwx.info

Track history (hours):
 
Tides and Currents Weather Stations Pressure Air Temp Water Temp Dewpoint Dewpoint Depression Visibility Wind Speed Wind Dir Waves Ship Positions

Dame De Poisson

Last reported at 2018-Jun-20 13:13 UTC. Time now 2018-Jun-21 12:15 UTC.
Position N 47°36' W 003°01'.

Length 10 m.

Type: Fishing. MMSI: 227784760.

Date/timePositionNaut miles runAvg speedWind from/ knotsBaromVisibWave heightAir tempDewpointWater temp
2018-Jun-20 13:13N 47°36' W 003°01'0 1.6
2018-Jun-20 12:59N 47°35' W 003°01'3 6.9
2018-Jun-20 12:30N 47°32' W 003°02'4 7.6
2018-Jun-20 12:00N 47°28' W 003°04'1 2.4
2018-Jun-20 11:26N 47°27' W 003°05'1 1.3
2018-Jun-20 11:00N 47°27' W 003°06'0 0.5
2018-Jun-20 10:30N 47°27' W 003°06'0 0.8
2018-Jun-20 09:53N 47°27' W 003°06'1 1.5
2018-Jun-20 09:17N 47°28' W 003°07'0 1.3
2018-Jun-20 08:54N 47°28' W 003°06'0 0.9
2018-Jun-20 08:27N 47°28' W 003°06'1 0.9
2018-Jun-20 07:51N 47°28' W 003°05'0 0.8
2018-Jun-20 07:22N 47°28' W 003°06'0 0.6
2018-Jun-20 07:00N 47°28' W 003°05'3 6.0
2018-Jun-20 06:30N 47°30' W 003°03'4 7.5
2018-Jun-20 06:00N 47°33' W 002°59'0 0.2
2018-Jun-20 05:30N 47°33' W 002°59'1 1.0
2018-Jun-20 04:57N 47°32' W 002°59'1 2.6
2018-Jun-20 04:30N 47°33' W 003°00'1 2.3
2018-Jun-20 03:57N 47°34' W 003°02'0 0.9
2018-Jun-20 03:27N 47°34' W 003°01'0 0.8
2018-Jun-20 02:58N 47°33' W 003°01'1 3.0
2018-Jun-20 02:30N 47°35' W 003°01'1 0.0
2018-Jun-18 13:05N 47°35' W 003°01'0 0.0
2018-Jun-18 12:59N 47°35' W 003°01'3 4.8
2018-Jun-18 12:28N 47°33' W 003°01'7 6.9
2018-Jun-18 11:28N 47°27' W 003°06'0 0.5
2018-Jun-18 10:58N 47°27' W 003°05'0 0.9
2018-Jun-18 10:24N 47°27' W 003°06'0 0.8
2018-Jun-18 09:59N 47°27' W 003°06'0 0.8
2018-Jun-18 09:29N 47°28' W 003°06'0 0.5
2018-Jun-18 09:00N 47°28' W 003°07'0 0.9
2018-Jun-18 08:28N 47°28' W 003°07'1 1.7
2018-Jun-18 07:59N 47°28' W 003°06'0 0.3
2018-Jun-18 07:28N 47°28' W 003°06'0 0.7
2018-Jun-18 06:53N 47°28' W 003°05'2 5.1
2018-Jun-18 06:29N 47°29' W 003°03'4 8.0
2018-Jun-18 05:59N 47°32' W 002°59'1 1.5
2018-Jun-18 05:30N 47°33' W 002°59'0 0.9
2018-Jun-18 04:59N 47°32' W 002°59'2 5.0
2018-Jun-18 04:30N 47°34' W 003°02'1 1.3
2018-Jun-18 04:00N 47°34' W 003°01'0 0.6
2018-Jun-18 03:30N 47°34' W 003°01'1 1.1
2018-Jun-18 03:00N 47°34' W 003°01'  
2018-Jun-15 11:51N 47°36' W 003°01'3 5.0
2018-Jun-15 11:17N 47°33' W 003°01'2 7.7
2018-Jun-15 10:59N 47°31' W 003°02'4 7.9
2018-Jun-15 10:29N 47°27' W 003°05'1 1.0
2018-Jun-15 09:56N 47°27' W 003°06'0 0.0
2018-Jun-15 09:29N 47°27' W 003°06'1 1.1
2018-Jun-15 08:54N 47°28' W 003°07'1 1.5
2018-Jun-15 08:29N 47°28' W 003°07'1 1.1
2018-Jun-15 08:00N 47°28' W 003°06'1 1.2
2018-Jun-15 07:28N 47°27' W 003°05'0 0.5
2018-Jun-15 06:53N 47°28' W 003°06'0 0.7
2018-Jun-15 06:24N 47°28' W 003°05'2 4.2
2018-Jun-15 05:55N 47°29' W 003°03'3 8.2
2018-Jun-15 05:30N 47°32' W 002°60'1 2.6
2018-Jun-15 05:00N 47°33' W 002°59'1 1.8
2018-Jun-15 04:30N 47°33' W 002°60'2 2.9
2018-Jun-15 03:56N 47°34' W 003°02'1 1.3
2018-Jun-15 03:28N 47°34' W 003°01'0 0.2
2018-Jun-15 03:00N 47°34' W 003°01'1 2.5
2018-Jun-15 02:30N 47°35' W 003°01'1 0.0
2018-Jun-13 12:26N 47°35' W 003°01'3 6.9
2018-Jun-13 12:00N 47°33' W 003°02'5 8.3
2018-Jun-13 11:27N 47°28' W 003°04'1 2.8
2018-Jun-13 10:59N 47°27' W 003°06'1 1.3
2018-Jun-13 10:30N 47°27' W 003°07'0 0.6
2018-Jun-13 10:00N 47°27' W 003°06'0 0.5
2018-Jun-13 09:28N 47°27' W 003°06'1 1.7
2018-Jun-13 08:48N 47°28' W 003°06'0 1.5
2018-Jun-13 08:30N 47°28' W 003°06'0 0.7
2018-Jun-13 08:00N 47°28' W 003°06'1 1.4
2018-Jun-13 07:29N 47°28' W 003°05'0 0.6
2018-Jun-13 07:00N 47°28' W 003°06'1 1.5
2018-Jun-13 06:27N 47°28' W 003°05'4 8.5
2018-Jun-13 06:00N 47°31' W 003°01'3 4.2
2018-Jun-13 05:24N 47°33' W 002°59'1 2.4
2018-Jun-13 05:00N 47°33' W 002°60'0 0.8
2018-Jun-13 04:30N 47°33' W 003°00'1 2.3
2018-Jun-13 04:00N 47°34' W 003°02'1 1.1
2018-Jun-13 03:22N 47°34' W 003°01'0 0.4
2018-Jun-13 02:57N 47°34' W 003°01'1 3.2
2018-Jun-13 02:30N 47°35' W 003°01'0 0.0
2018-Jun-11 12:45N 47°36' W 003°01'0 0.4
2018-Jun-11 12:30N 47°35' W 003°01'3 6.6
2018-Jun-11 12:00N 47°32' W 003°03'4 6.6
2018-Jun-11 11:25N 47°29' W 003°06'1 2.6
2018-Jun-11 10:59N 47°28' W 003°05'1 1.6
2018-Jun-11 10:22N 47°28' W 003°06'1 2.2
2018-Jun-11 09:59N 47°28' W 003°07'1 0.7
2018-Jun-11 09:13N 47°28' W 003°06'0 0.8
2018-Jun-11 08:51N 47°28' W 003°06'1 1.6
2018-Jun-11 08:30N 47°27' W 003°06'0 0.4
2018-Jun-11 08:00N 47°27' W 003°06'0 0.2
2018-Jun-11 07:29N 47°27' W 003°06'0 0.6
2018-Jun-11 06:59N 47°27' W 003°06'1 2.7
2018-Jun-11 06:28N 47°27' W 003°04'2 4.6
2018-Jun-11 05:58N 47°29' W 003°03'4 8.3
2018-Jun-11 05:30N 47°32' W 002°59'0 0.8
2018-Jun-11 05:00N 47°33' W 002°59'1 2.4
2018-Jun-11 04:30N 47°34' W 003°00'1 2.3
2018-Jun-11 03:58N 47°34' W 003°02'0 1.0
2018-Jun-11 03:28N 47°34' W 003°01'0 0.5
2018-Jun-11 02:59N 47°34' W 003°01'1 1.5
2018-Jun-11 02:30N 47°34' W 003°01'  
Track history (hours):
 
Tides and Currents Weather Stations Pressure Air Temp Water Temp Dewpoint Dewpoint Depression Visibility Wind Speed Wind Dir Waves Ship Positions

Dame De Poisson

Last reported at 2018-Jun-20 13:13 UTC. Time now 2018-Jun-21 12:15 UTC.
Position N 47°36' W 003°01'.

Length 10 m.

Type: Fishing. MMSI: 227784760.

Date/timePositionNaut miles runAvg speedWind from/ knotsBaromVisibWave heightAir tempDewpointWater temp
2018-Jun-20 13:13N 47°36' W 003°01'0 1.6
2018-Jun-20 12:59N 47°35' W 003°01'3 6.9
2018-Jun-20 12:30N 47°32' W 003°02'4 7.6
2018-Jun-20 12:00N 47°28' W 003°04'1 2.4
2018-Jun-20 11:26N 47°27' W 003°05'1 1.3
2018-Jun-20 11:00N 47°27' W 003°06'0 0.5
2018-Jun-20 10:30N 47°27' W 003°06'0 0.8
2018-Jun-20 09:53N 47°27' W 003°06'1 1.5
2018-Jun-20 09:17N 47°28' W 003°07'0 1.3
2018-Jun-20 08:54N 47°28' W 003°06'0 0.9
2018-Jun-20 08:27N 47°28' W 003°06'1 0.9
2018-Jun-20 07:51N 47°28' W 003°05'0 0.8
2018-Jun-20 07:22N 47°28' W 003°06'0 0.6
2018-Jun-20 07:00N 47°28' W 003°05'3 6.0
2018-Jun-20 06:30N 47°30' W 003°03'4 7.5
2018-Jun-20 06:00N 47°33' W 002°59'0 0.2
2018-Jun-20 05:30N 47°33' W 002°59'1 1.0
2018-Jun-20 04:57N 47°32' W 002°59'1 2.6
2018-Jun-20 04:30N 47°33' W 003°00'1 2.3
2018-Jun-20 03:57N 47°34' W 003°02'0 0.9
2018-Jun-20 03:27N 47°34' W 003°01'0 0.8
2018-Jun-20 02:58N 47°33' W 003°01'1 3.0
2018-Jun-20 02:30N 47°35' W 003°01'1 0.0
2018-Jun-18 13:05N 47°35' W 003°01'0 0.0
2018-Jun-18 12:59N 47°35' W 003°01'3 4.8
2018-Jun-18 12:28N 47°33' W 003°01'7 6.9
2018-Jun-18 11:28N 47°27' W 003°06'0 0.5
2018-Jun-18 10:58N 47°27' W 003°05'0 0.9
2018-Jun-18 10:24N 47°27' W 003°06'0 0.8
2018-Jun-18 09:59N 47°27' W 003°06'0 0.8
2018-Jun-18 09:29N 47°28' W 003°06'0 0.5
2018-Jun-18 09:00N 47°28' W 003°07'0 0.9
2018-Jun-18 08:28N 47°28' W 003°07'1 1.7
2018-Jun-18 07:59N 47°28' W 003°06'0 0.3
2018-Jun-18 07:28N 47°28' W 003°06'0 0.7
2018-Jun-18 06:53N 47°28' W 003°05'2 5.1
2018-Jun-18 06:29N 47°29' W 003°03'4 8.0
2018-Jun-18 05:59N 47°32' W 002°59'1 1.5
2018-Jun-18 05:30N 47°33' W 002°59'0 0.9
2018-Jun-18 04:59N 47°32' W 002°59'2 5.0
2018-Jun-18 04:30N 47°34' W 003°02'1 1.3
2018-Jun-18 04:00N 47°34' W 003°01'0 0.6
2018-Jun-18 03:30N 47°34' W 003°01'1 1.1
2018-Jun-18 03:00N 47°34' W 003°01'  
2018-Jun-15 11:51N 47°36' W 003°01'3 5.0
2018-Jun-15 11:17N 47°33' W 003°01'2 7.7
2018-Jun-15 10:59N 47°31' W 003°02'4 7.9
2018-Jun-15 10:29N 47°27' W 003°05'1 1.0
2018-Jun-15 09:56N 47°27' W 003°06'0 0.0
2018-Jun-15 09:29N 47°27' W 003°06'1 1.1
2018-Jun-15 08:54N 47°28' W 003°07'1 1.5
2018-Jun-15 08:29N 47°28' W 003°07'1 1.1
2018-Jun-15 08:00N 47°28' W 003°06'1 1.2
2018-Jun-15 07:28N 47°27' W 003°05'0 0.5
2018-Jun-15 06:53N 47°28' W 003°06'0 0.7
2018-Jun-15 06:24N 47°28' W 003°05'2 4.2
2018-Jun-15 05:55N 47°29' W 003°03'3 8.2
2018-Jun-15 05:30N 47°32' W 002°60'1 2.6
2018-Jun-15 05:00N 47°33' W 002°59'1 1.8
2018-Jun-15 04:30N 47°33' W 002°60'2 2.9
2018-Jun-15 03:56N 47°34' W 003°02'1 1.3
2018-Jun-15 03:28N 47°34' W 003°01'0 0.2
2018-Jun-15 03:00N 47°34' W 003°01'1 2.5
2018-Jun-15 02:30N 47°35' W 003°01'1 0.0
2018-Jun-13 12:26N 47°35' W 003°01'3 6.9
2018-Jun-13 12:00N 47°33' W 003°02'5 8.3
2018-Jun-13 11:27N 47°28' W 003°04'1 2.8
2018-Jun-13 10:59N 47°27' W 003°06'1 1.3
2018-Jun-13 10:30N 47°27' W 003°07'0 0.6
2018-Jun-13 10:00N 47°27' W 003°06'0 0.5
2018-Jun-13 09:28N 47°27' W 003°06'1 1.7
2018-Jun-13 08:48N 47°28' W 003°06'0 1.5
2018-Jun-13 08:30N 47°28' W 003°06'0 0.7
2018-Jun-13 08:00N 47°28' W 003°06'1 1.4
2018-Jun-13 07:29N 47°28' W 003°05'0 0.6
2018-Jun-13 07:00N 47°28' W 003°06'1 1.5
2018-Jun-13 06:27N 47°28' W 003°05'4 8.5
2018-Jun-13 06:00N 47°31' W 003°01'3 4.2
2018-Jun-13 05:24N 47°33' W 002°59'1 2.4
2018-Jun-13 05:00N 47°33' W 002°60'0 0.8
2018-Jun-13 04:30N 47°33' W 003°00'1 2.3
2018-Jun-13 04:00N 47°34' W 003°02'1 1.1
2018-Jun-13 03:22N 47°34' W 003°01'0 0.4
2018-Jun-13 02:57N 47°34' W 003°01'1 3.2
2018-Jun-13 02:30N 47°35' W 003°01'0 0.0
2018-Jun-11 12:45N 47°36' W 003°01'0 0.4
2018-Jun-11 12:30N 47°35' W 003°01'3 6.6
2018-Jun-11 12:00N 47°32' W 003°03'4 6.6
2018-Jun-11 11:25N 47°29' W 003°06'1 2.6
2018-Jun-11 10:59N 47°28' W 003°05'1 1.6
2018-Jun-11 10:22N 47°28' W 003°06'1 2.2
2018-Jun-11 09:59N 47°28' W 003°07'1 0.7
2018-Jun-11 09:13N 47°28' W 003°06'0 0.8
2018-Jun-11 08:51N 47°28' W 003°06'1 1.6
2018-Jun-11 08:30N 47°27' W 003°06'0 0.4
2018-Jun-11 08:00N 47°27' W 003°06'0 0.2
2018-Jun-11 07:29N 47°27' W 003°06'0 0.6
2018-Jun-11 06:59N 47°27' W 003°06'1 2.7
2018-Jun-11 06:28N 47°27' W 003°04'2 4.6
2018-Jun-11 05:58N 47°29' W 003°03'4 8.3
2018-Jun-11 05:30N 47°32' W 002°59'0 0.8
2018-Jun-11 05:00N 47°33' W 002°59'1 2.4
2018-Jun-11 04:30N 47°34' W 003°00'1 2.3
2018-Jun-11 03:58N 47°34' W 003°02'0 1.0
2018-Jun-11 03:28N 47°34' W 003°01'0 0.5
2018-Jun-11 02:59N 47°34' W 003°01'1 1.5
2018-Jun-11 02:30N 47°34' W 003°01'  

Dump ship's entire track history